sensor_id;sensor_type;location;lat;lon;timestamp;temperature;humidity
12948;DHT22;6539;49.476;8.484;2022-12-11T00:01:11;1.80;99.90
12948;DHT22;6539;49.476;8.484;2022-12-11T00:03:38;1.90;99.90
12948;DHT22;6539;49.476;8.484;2022-12-11T00:06:10;1.90;99.90
12948;DHT22;6539;49.476;8.484;2022-12-11T00:08:38;1.90;99.90
12948;DHT22;6539;49.476;8.484;2022-12-11T00:11:07;1.90;99.90
12948;DHT22;6539;49.476;8.484;2022-12-11T00:13:36;1.60;99.90
12948;DHT22;6539;49.476;8.484;2022-12-11T00:18:29;1.50;99.90
12948;DHT22;6539;49.476;8.484;2022-12-11T00:21:02;1.80;99.90
12948;DHT22;6539;49.476;8.484;2022-12-11T00:23:34;1.80;99.90
12948;DHT22;6539;49.476;8.484;2022-12-11T00:26:08;2.00;99.90
12948;DHT22;6539;49.476;8.484;2022-12-11T00:28:39;2.00;99.90
12948;DHT22;6539;49.476;8.484;2022-12-11T00:31:08;1.90;99.90
12948;DHT22;6539;49.476;8.484;2022-12-11T00:36:08;2.10;99.90
12948;DHT22;6539;49.476;8.484;2022-12-11T00:48:25;2.10;99.90
12948;DHT22;6539;49.476;8.484;2022-12-11T00:50:51;1.90;99.90
12948;DHT22;6539;49.476;8.484;2022-12-11T00:53:21;1.90;99.90
12948;DHT22;6539;49.476;8.484;2022-12-11T00:58:16;2.10;99.90
12948;DHT22;6539;49.476;8.484;2022-12-11T01:00:44;2.10;99.90
12948;DHT22;6539;49.476;8.484;2022-12-11T01:03:15;2.00;99.90
12948;DHT22;6539;49.476;8.484;2022-12-11T01:05:53;1.90;99.90
12948;DHT22;6539;49.476;8.484;2022-12-11T01:10:47;2.10;99.90
12948;DHT22;6539;49.476;8.484;2022-12-11T01:13:20;1.70;99.90
12948;DHT22;6539;49.476;8.484;2022-12-11T01:15:50;1.90;99.90
12948;DHT22;6539;49.476;8.484;2022-12-11T01:18:16;2.00;99.90
12948;DHT22;6539;49.476;8.484;2022-12-11T01:20:42;2.20;99.90
12948;DHT22;6539;49.476;8.484;2022-12-11T01:23:11;2.00;99.90
12948;DHT22;6539;49.476;8.484;2022-12-11T01:28:05;2.30;99.90
12948;DHT22;6539;49.476;8.484;2022-12-11T01:30:32;2.20;99.90
12948;DHT22;6539;49.476;8.484;2022-12-11T01:32:58;2.20;99.90
12948;DHT22;6539;49.476;8.484;2022-12-11T01:35:25;2.20;99.90
12948;DHT22;6539;49.476;8.484;2022-12-11T01:40:19;2.20;99.90
12948;DHT22;6539;49.476;8.484;2022-12-11T01:42:45;2.10;99.90
12948;DHT22;6539;49.476;8.484;2022-12-11T01:47:54;2.40;99.90
12948;DHT22;6539;49.476;8.484;2022-12-11T01:50:28;2.70;99.90
12948;DHT22;6539;49.476;8.484;2022-12-11T01:52:58;2.20;99.90
12948;DHT22;6539;49.476;8.484;2022-12-11T01:55:26;2.40;99.90
12948;DHT22;6539;49.476;8.484;2022-12-11T01:57:53;3.40;99.90
12948;DHT22;6539;49.476;8.484;2022-12-11T02:00:20;2.40;99.90
12948;DHT22;6539;49.476;8.484;2022-12-11T02:02:51;2.20;99.90
12948;DHT22;6539;49.476;8.484;2022-12-11T02:07:47;2.40;99.90
12948;DHT22;6539;49.476;8.484;2022-12-11T02:10:28;2.30;99.90
12948;DHT22;6539;49.476;8.484;2022-12-11T02:13:18;2.30;99.90
12948;DHT22;6539;49.476;8.484;2022-12-11T02:16:02;2.10;99.90
12948;DHT22;6539;49.476;8.484;2022-12-11T02:21:42;2.10;99.90
12948;DHT22;6539;49.476;8.484;2022-12-11T02:30:08;2.00;99.90
12948;DHT22;6539;49.476;8.484;2022-12-11T02:32:46;1.80;99.90
12948;DHT22;6539;49.476;8.484;2022-12-11T02:35:37;1.80;99.90
12948;DHT22;6539;49.476;8.484;2022-12-11T02:38:22;1.80;99.90
12948;DHT22;6539;49.476;8.484;2022-12-11T02:41:02;2.00;99.90
12948;DHT22;6539;49.476;8.484;2022-12-11T02:43:30;2.10;99.90
12948;DHT22;6539;49.476;8.484;2022-12-11T02:45:58;2.20;99.90
12948;DHT22;6539;49.476;8.484;2022-12-11T02:48:26;2.10;99.90
12948;DHT22;6539;49.476;8.484;2022-12-11T02:50:55;2.20;99.90
12948;DHT22;6539;49.476;8.484;2022-12-11T02:53:28;2.40;99.90
12948;DHT22;6539;49.476;8.484;2022-12-11T02:56:19;2.10;99.90
12948;DHT22;6539;49.476;8.484;2022-12-11T02:59:00;2.10;99.90
12948;DHT22;6539;49.476;8.484;2022-12-11T03:01:36;2.30;99.90
12948;DHT22;6539;49.476;8.484;2022-12-11T03:06:38;2.00;99.90
12948;DHT22;6539;49.476;8.484;2022-12-11T03:09:11;2.20;99.90
12948;DHT22;6539;49.476;8.484;2022-12-11T03:14:06;2.00;99.90
12948;DHT22;6539;49.476;8.484;2022-12-11T03:17:22;1.80;99.90
12948;DHT22;6539;49.476;8.484;2022-12-11T03:22:46;1.90;99.90
12948;DHT22;6539;49.476;8.484;2022-12-11T03:25:53;2.30;99.90
12948;DHT22;6539;49.476;8.484;2022-12-11T03:31:42;2.20;99.90
12948;DHT22;6539;49.476;8.484;2022-12-11T03:34:26;2.00;99.90
12948;DHT22;6539;49.476;8.484;2022-12-11T03:36:59;2.20;99.90
12948;DHT22;6539;49.476;8.484;2022-12-11T03:39:31;2.10;99.90
12948;DHT22;6539;49.476;8.484;2022-12-11T03:42:05;2.50;99.90
12948;DHT22;6539;49.476;8.484;2022-12-11T03:44:37;2.40;99.90
12948;DHT22;6539;49.476;8.484;2022-12-11T03:47:06;2.10;99.90
12948;DHT22;6539;49.476;8.484;2022-12-11T03:49:39;2.40;99.90
12948;DHT22;6539;49.476;8.484;2022-12-11T03:52:10;2.40;99.90
12948;DHT22;6539;49.476;8.484;2022-12-11T03:57:15;2.40;99.90
12948;DHT22;6539;49.476;8.484;2022-12-11T03:59:52;2.60;99.90
12948;DHT22;6539;49.476;8.484;2022-12-11T04:02:18;2.40;99.90
12948;DHT22;6539;49.476;8.484;2022-12-11T04:04:44;2.40;99.90
12948;DHT22;6539;49.476;8.484;2022-12-11T04:14:31;1.90;99.90
12948;DHT22;6539;49.476;8.484;2022-12-11T04:17:27;2.00;99.90
12948;DHT22;6539;49.476;8.484;2022-12-11T04:20:17;2.00;99.90
12948;DHT22;6539;49.476;8.484;2022-12-11T04:23:04;2.00;99.90
12948;DHT22;6539;49.476;8.484;2022-12-11T04:28:16;2.00;99.90
12948;DHT22;6539;49.476;8.484;2022-12-11T04:30:48;2.30;99.90
12948;DHT22;6539;49.476;8.484;2022-12-11T04:33:16;1.90;99.90
12948;DHT22;6539;49.476;8.484;2022-12-11T04:35:42;1.90;99.90
12948;DHT22;6539;49.476;8.484;2022-12-11T04:38:08;1.90;99.90
12948;DHT22;6539;49.476;8.484;2022-12-11T04:40:33;1.80;99.90
12948;DHT22;6539;49.476;8.484;2022-12-11T04:42:59;1.80;99.90
12948;DHT22;6539;49.476;8.484;2022-12-11T04:57:40;2.10;99.90
12948;DHT22;6539;49.476;8.484;2022-12-11T05:00:10;1.90;99.90
12948;DHT22;6539;49.476;8.484;2022-12-11T05:02:42;1.90;99.90
12948;DHT22;6539;49.476;8.484;2022-12-11T05:05:10;1.90;99.90
12948;DHT22;6539;49.476;8.484;2022-12-11T05:07:36;1.70;99.90
12948;DHT22;6539;49.476;8.484;2022-12-11T05:10:05;2.10;99.90
12948;DHT22;6539;49.476;8.484;2022-12-11T05:15:05;3.10;99.90
12948;DHT22;6539;49.476;8.484;2022-12-11T05:17:34;1.80;99.90
12948;DHT22;6539;49.476;8.484;2022-12-11T05:22:33;1.80;99.90
12948;DHT22;6539;49.476;8.484;2022-12-11T05:24:59;1.60;99.90
12948;DHT22;6539;49.476;8.484;2022-12-11T05:27:25;1.90;99.90
12948;DHT22;6539;49.476;8.484;2022-12-11T05:29:51;1.70;99.90
12948;DHT22;6539;49.476;8.484;2022-12-11T05:32:19;1.90;99.90
12948;DHT22;6539;49.476;8.484;2022-12-11T05:37:13;1.50;99.90
12948;DHT22;6539;49.476;8.484;2022-12-11T05:44:33;1.60;99.90
12948;DHT22;6539;49.476;8.484;2022-12-11T05:46:59;1.70;99.90
12948;DHT22;6539;49.476;8.484;2022-12-11T05:49:25;1.80;99.90
12948;DHT22;6539;49.476;8.484;2022-12-11T05:51:50;2.30;99.90
12948;DHT22;6539;49.476;8.484;2022-12-11T05:54:19;1.90;99.90
12948;DHT22;6539;49.476;8.484;2022-12-11T05:56:44;1.90;99.90
12948;DHT22;6539;49.476;8.484;2022-12-11T06:01:44;1.90;99.90
12948;DHT22;6539;49.476;8.484;2022-12-11T06:04:12;1.90;99.90
12948;DHT22;6539;49.476;8.484;2022-12-11T06:06:40;1.50;99.90
12948;DHT22;6539;49.476;8.484;2022-12-11T06:09:14;1.60;99.90
12948;DHT22;6539;49.476;8.484;2022-12-11T06:11:43;1.70;99.90
12948;DHT22;6539;49.476;8.484;2022-12-11T06:14:09;1.70;99.90
12948;DHT22;6539;49.476;8.484;2022-12-11T06:16:40;1.70;99.90
12948;DHT22;6539;49.476;8.484;2022-12-11T06:19:06;1.50;99.90
12948;DHT22;6539;49.476;8.484;2022-12-11T06:21:40;1.50;99.90
12948;DHT22;6539;49.476;8.484;2022-12-11T06:24:09;1.50;99.90
12948;DHT22;6539;49.476;8.484;2022-12-11T06:26:36;1.60;99.90
12948;DHT22;6539;49.476;8.484;2022-12-11T06:31:30;1.50;99.90
12948;DHT22;6539;49.476;8.484;2022-12-11T06:33:58;1.60;99.90
12948;DHT22;6539;49.476;8.484;2022-12-11T06:36:29;1.70;99.90
12948;DHT22;6539;49.476;8.484;2022-12-11T06:38:57;1.50;99.90
12948;DHT22;6539;49.476;8.484;2022-12-11T06:41:25;1.30;99.90
12948;DHT22;6539;49.476;8.484;2022-12-11T06:46:18;1.30;99.90
12948;DHT22;6539;49.476;8.484;2022-12-11T06:48:45;1.20;99.90
12948;DHT22;6539;49.476;8.484;2022-12-11T06:51:14;1.30;99.90
12948;DHT22;6539;49.476;8.484;2022-12-11T06:53:41;1.20;99.90
12948;DHT22;6539;49.476;8.484;2022-12-11T06:56:13;1.50;99.90
12948;DHT22;6539;49.476;8.484;2022-12-11T06:58:42;1.20;99.90
12948;DHT22;6539;49.476;8.484;2022-12-11T07:06:13;1.20;99.90
12948;DHT22;6539;49.476;8.484;2022-12-11T07:08:42;1.20;99.90
12948;DHT22;6539;49.476;8.484;2022-12-11T07:11:14;1.20;99.90
12948;DHT22;6539;49.476;8.484;2022-12-11T07:13:41;1.40;99.90
12948;DHT22;6539;49.476;8.484;2022-12-11T07:16:08;1.40;99.90
12948;DHT22;6539;49.476;8.484;2022-12-11T07:18:42;1.20;99.90
12948;DHT22;6539;49.476;8.484;2022-12-11T07:21:12;1.20;99.90
12948;DHT22;6539;49.476;8.484;2022-12-11T07:23:41;1.20;99.90
12948;DHT22;6539;49.476;8.484;2022-12-11T07:26:14;1.20;99.90
12948;DHT22;6539;49.476;8.484;2022-12-11T07:28:44;1.30;99.90
12948;DHT22;6539;49.476;8.484;2022-12-11T07:31:13;1.40;99.90
12948;DHT22;6539;49.476;8.484;2022-12-11T07:33:40;1.40;99.90
12948;DHT22;6539;49.476;8.484;2022-12-11T07:36:08;1.50;99.90
12948;DHT22;6539;49.476;8.484;2022-12-11T07:38:35;1.60;99.90
12948;DHT22;6539;49.476;8.484;2022-12-11T07:41:08;1.40;99.90
12948;DHT22;6539;49.476;8.484;2022-12-11T07:43:40;1.50;99.90
12948;DHT22;6539;49.476;8.484;2022-12-11T07:46:09;1.30;99.90
12948;DHT22;6539;49.476;8.484;2022-12-11T07:48:44;1.30;99.90
12948;DHT22;6539;49.476;8.484;2022-12-11T07:51:19;1.20;99.90
12948;DHT22;6539;49.476;8.484;2022-12-11T07:53:58;1.30;99.90
12948;DHT22;6539;49.476;8.484;2022-12-11T07:56:29;1.30;99.90
12948;DHT22;6539;49.476;8.484;2022-12-11T07:58:58;1.40;99.90
12948;DHT22;6539;49.476;8.484;2022-12-11T08:01:26;1.60;99.90
12948;DHT22;6539;49.476;8.484;2022-12-11T08:03:54;1.10;99.90
12948;DHT22;6539;49.476;8.484;2022-12-11T08:06:27;1.30;99.90
12948;DHT22;6539;49.476;8.484;2022-12-11T08:08:59;1.50;99.90
12948;DHT22;6539;49.476;8.484;2022-12-11T08:13:55;1.50;99.90
12948;DHT22;6539;49.476;8.484;2022-12-11T08:16:27;1.50;99.90
12948;DHT22;6539;49.476;8.484;2022-12-11T08:18:55;1.70;99.90
12948;DHT22;6539;49.476;8.484;2022-12-11T08:21:23;1.60;99.90
12948;DHT22;6539;49.476;8.484;2022-12-11T08:26:24;1.20;99.90
12948;DHT22;6539;49.476;8.484;2022-12-11T08:28:52;1.60;99.90
12948;DHT22;6539;49.476;8.484;2022-12-11T08:31:23;1.90;99.90
12948;DHT22;6539;49.476;8.484;2022-12-11T08:33:50;2.10;99.90
12948;DHT22;6539;49.476;8.484;2022-12-11T08:36:21;2.20;99.90
12948;DHT22;6539;49.476;8.484;2022-12-11T08:38:50;2.00;99.90
12948;DHT22;6539;49.476;8.484;2022-12-11T08:41:22;2.50;99.90
12948;DHT22;6539;49.476;8.484;2022-12-11T08:43:53;2.20;99.90
12948;DHT22;6539;49.476;8.484;2022-12-11T08:46:21;2.40;99.90
12948;DHT22;6539;49.476;8.484;2022-12-11T08:48:49;2.30;99.90
12948;DHT22;6539;49.476;8.484;2022-12-11T08:51:20;1.90;99.90
12948;DHT22;6539;49.476;8.484;2022-12-11T08:53:48;2.00;99.90
12948;DHT22;6539;49.476;8.484;2022-12-11T08:56:17;1.80;99.90
12948;DHT22;6539;49.476;8.484;2022-12-11T08:58:45;2.20;99.90
12948;DHT22;6539;49.476;8.484;2022-12-11T09:01:17;2.20;99.90
12948;DHT22;6539;49.476;8.484;2022-12-11T09:06:16;2.10;99.90
12948;DHT22;6539;49.476;8.484;2022-12-11T09:08:45;2.00;99.90
12948;DHT22;6539;49.476;8.484;2022-12-11T09:11:20;1.90;99.90
12948;DHT22;6539;49.476;8.484;2022-12-11T09:13:48;2.00;99.90
12948;DHT22;6539;49.476;8.484;2022-12-11T09:16:15;1.90;99.90
12948;DHT22;6539;49.476;8.484;2022-12-11T09:18:48;2.10;99.90
12948;DHT22;6539;49.476;8.484;2022-12-11T09:21:18;1.80;99.90
12948;DHT22;6539;49.476;8.484;2022-12-11T09:23:46;1.80;99.90
12948;DHT22;6539;49.476;8.484;2022-12-11T09:26:16;2.00;99.90
12948;DHT22;6539;49.476;8.484;2022-12-11T09:31:15;2.30;99.90
12948;DHT22;6539;49.476;8.484;2022-12-11T09:33:57;2.10;99.90
12948;DHT22;6539;49.476;8.484;2022-12-11T09:36:26;2.20;99.90
12948;DHT22;6539;49.476;8.484;2022-12-11T09:38:55;2.00;99.90
12948;DHT22;6539;49.476;8.484;2022-12-11T09:44:37;2.40;99.90
12948;DHT22;6539;49.476;8.484;2022-12-11T09:47:26;2.20;99.90
12948;DHT22;6539;49.476;8.484;2022-12-11T09:50:06;2.20;99.90
12948;DHT22;6539;49.476;8.484;2022-12-11T09:59:08;2.70;99.90
12948;DHT22;6539;49.476;8.484;2022-12-11T10:01:48;2.40;99.90
12948;DHT22;6539;49.476;8.484;2022-12-11T10:10:12;2.70;99.90
12948;DHT22;6539;49.476;8.484;2022-12-11T10:13:02;2.60;99.90
12948;DHT22;6539;49.476;8.484;2022-12-11T10:18:34;2.60;99.90
12948;DHT22;6539;49.476;8.484;2022-12-11T10:21:04;3.00;99.90
12948;DHT22;6539;49.476;8.484;2022-12-11T10:23:42;2.80;99.90
12948;DHT22;6539;49.476;8.484;2022-12-11T10:26:17;2.60;99.90
12948;DHT22;6539;49.476;8.484;2022-12-11T10:28:45;2.60;99.90
12948;DHT22;6539;49.476;8.484;2022-12-11T10:36:53;2.60;99.90
12948;DHT22;6539;49.476;8.484;2022-12-11T10:39:20;2.70;99.90
12948;DHT22;6539;49.476;8.484;2022-12-11T10:41:50;2.70;99.90
12948;DHT22;6539;49.476;8.484;2022-12-11T10:44:26;2.50;99.90
12948;DHT22;6539;49.476;8.484;2022-12-11T10:47:20;2.60;99.90
12948;DHT22;6539;49.476;8.484;2022-12-11T10:50:00;2.70;99.90
12948;DHT22;6539;49.476;8.484;2022-12-11T10:52:41;2.60;99.90
12948;DHT22;6539;49.476;8.484;2022-12-11T10:55:25;2.80;99.90
12948;DHT22;6539;49.476;8.484;2022-12-11T10:58:00;2.90;99.90
12948;DHT22;6539;49.476;8.484;2022-12-11T11:00:40;2.70;99.90
12948;DHT22;6539;49.476;8.484;2022-12-11T11:03:25;2.80;99.90
12948;DHT22;6539;49.476;8.484;2022-12-11T11:06:14;3.00;99.90
12948;DHT22;6539;49.476;8.484;2022-12-11T11:08:46;2.80;99.90
12948;DHT22;6539;49.476;8.484;2022-12-11T11:11:26;2.80;99.90
12948;DHT22;6539;49.476;8.484;2022-12-11T11:14:11;3.00;99.90
12948;DHT22;6539;49.476;8.484;2022-12-11T11:16:41;2.30;99.90
12948;DHT22;6539;49.476;8.484;2022-12-11T11:19:30;2.90;99.90
12948;DHT22;6539;49.476;8.484;2022-12-11T11:22:06;3.00;99.90
12948;DHT22;6539;49.476;8.484;2022-12-11T11:24:53;3.00;99.90
12948;DHT22;6539;49.476;8.484;2022-12-11T11:27:33;3.00;99.90
12948;DHT22;6539;49.476;8.484;2022-12-11T11:30:04;3.30;99.90
12948;DHT22;6539;49.476;8.484;2022-12-11T11:32:38;3.50;99.90
12948;DHT22;6539;49.476;8.484;2022-12-11T11:37:43;3.30;99.90
12948;DHT22;6539;49.476;8.484;2022-12-11T11:40:18;3.40;99.90
12948;DHT22;6539;49.476;8.484;2022-12-11T11:45:56;3.30;99.90
12948;DHT22;6539;49.476;8.484;2022-12-11T11:48:39;3.50;99.90
12948;DHT22;6539;49.476;8.484;2022-12-11T11:51:26;3.30;99.90
12948;DHT22;6539;49.476;8.484;2022-12-11T11:54:08;3.40;99.90
12948;DHT22;6539;49.476;8.484;2022-12-11T11:59:17;3.20;99.90
12948;DHT22;6539;49.476;8.484;2022-12-11T12:01:56;3.40;99.90
12948;DHT22;6539;49.476;8.484;2022-12-11T12:04:30;3.30;99.90
12948;DHT22;6539;49.476;8.484;2022-12-11T12:15:42;3.50;99.90
12948;DHT22;6539;49.476;8.484;2022-12-11T12:21:12;3.60;99.90
12948;DHT22;6539;49.476;8.484;2022-12-11T12:27:12;3.50;99.90
12948;DHT22;6539;49.476;8.484;2022-12-11T12:35:08;3.50;99.90
12948;DHT22;6539;49.476;8.484;2022-12-11T12:38:09;3.30;99.90
12948;DHT22;6539;49.476;8.484;2022-12-11T12:46:27;3.10;99.90
12948;DHT22;6539;49.476;8.484;2022-12-11T12:49:00;3.20;99.90
12948;DHT22;6539;49.476;8.484;2022-12-11T12:51:31;3.20;99.90
12948;DHT22;6539;49.476;8.484;2022-12-11T12:54:00;3.30;99.90
12948;DHT22;6539;49.476;8.484;2022-12-11T12:56:30;3.50;99.90
12948;DHT22;6539;49.476;8.484;2022-12-11T12:58:59;3.20;99.90
12948;DHT22;6539;49.476;8.484;2022-12-11T13:01:26;3.60;99.90
12948;DHT22;6539;49.476;8.484;2022-12-11T13:04:03;3.40;99.90
12948;DHT22;6539;49.476;8.484;2022-12-11T13:06:43;3.20;99.90
12948;DHT22;6539;49.476;8.484;2022-12-11T13:09:18;3.20;99.90
12948;DHT22;6539;49.476;8.484;2022-12-11T13:11:52;3.30;99.90
12948;DHT22;6539;49.476;8.484;2022-12-11T13:14:29;3.40;99.90
12948;DHT22;6539;49.476;8.484;2022-12-11T13:19:47;3.50;99.90
12948;DHT22;6539;49.476;8.484;2022-12-11T13:24:46;3.40;99.90
12948;DHT22;6539;49.476;8.484;2022-12-11T13:27:26;3.40;99.90
12948;DHT22;6539;49.476;8.484;2022-12-11T13:30:28;3.40;99.90
12948;DHT22;6539;49.476;8.484;2022-12-11T13:33:02;3.70;99.90
12948;DHT22;6539;49.476;8.484;2022-12-11T13:35:33;3.70;99.90
12948;DHT22;6539;49.476;8.484;2022-12-11T13:38:13;3.00;99.90
12948;DHT22;6539;49.476;8.484;2022-12-11T13:40:43;3.40;99.90
12948;DHT22;6539;49.476;8.484;2022-12-11T13:43:23;3.20;99.90
12948;DHT22;6539;49.476;8.484;2022-12-11T13:45:55;3.60;99.90
12948;DHT22;6539;49.476;8.484;2022-12-11T13:51:16;3.30;99.90
12948;DHT22;6539;49.476;8.484;2022-12-11T13:53:44;3.60;99.90
12948;DHT22;6539;49.476;8.484;2022-12-11T13:56:16;3.40;99.90
12948;DHT22;6539;49.476;8.484;2022-12-11T13:58:47;3.40;99.90
12948;DHT22;6539;49.476;8.484;2022-12-11T14:01:21;3.30;99.90
12948;DHT22;6539;49.476;8.484;2022-12-11T14:03:59;3.50;99.90
12948;DHT22;6539;49.476;8.484;2022-12-11T14:06:36;3.50;99.90
12948;DHT22;6539;49.476;8.484;2022-12-11T14:09:13;3.30;99.90
12948;DHT22;6539;49.476;8.484;2022-12-11T14:11:43;3.30;99.90
12948;DHT22;6539;49.476;8.484;2022-12-11T14:14:22;3.30;99.90
12948;DHT22;6539;49.476;8.484;2022-12-11T14:19:26;3.20;99.90
12948;DHT22;6539;49.476;8.484;2022-12-11T14:22:03;3.10;99.90
12948;DHT22;6539;49.476;8.484;2022-12-11T14:26:58;3.40;99.90
12948;DHT22;6539;49.476;8.484;2022-12-11T14:29:32;3.50;99.90
12948;DHT22;6539;49.476;8.484;2022-12-11T14:32:03;3.30;99.90
12948;DHT22;6539;49.476;8.484;2022-12-11T14:34:38;3.60;99.90
12948;DHT22;6539;49.476;8.484;2022-12-11T14:37:10;3.20;99.90
12948;DHT22;6539;49.476;8.484;2022-12-11T14:42:17;3.10;99.90
12948;DHT22;6539;49.476;8.484;2022-12-11T14:44:48;3.50;99.90
12948;DHT22;6539;49.476;8.484;2022-12-11T14:47:22;3.40;99.90
12948;DHT22;6539;49.476;8.484;2022-12-11T14:50:03;3.00;99.90
12948;DHT22;6539;49.476;8.484;2022-12-11T14:52:42;3.50;99.90
12948;DHT22;6539;49.476;8.484;2022-12-11T14:55:19;3.20;99.90
12948;DHT22;6539;49.476;8.484;2022-12-11T14:57:54;3.40;99.90
12948;DHT22;6539;49.476;8.484;2022-12-11T15:05:51;3.20;99.90
12948;DHT22;6539;49.476;8.484;2022-12-11T15:08:21;3.40;99.90
12948;DHT22;6539;49.476;8.484;2022-12-11T15:11:10;3.40;99.90
12948;DHT22;6539;49.476;8.484;2022-12-11T15:13:55;3.00;99.90
12948;DHT22;6539;49.476;8.484;2022-12-11T15:16:24;3.30;99.90
12948;DHT22;6539;49.476;8.484;2022-12-11T15:18:55;3.50;99.90
12948;DHT22;6539;49.476;8.484;2022-12-11T15:21:34;3.10;99.90
12948;DHT22;6539;49.476;8.484;2022-12-11T15:24:19;3.50;99.90
12948;DHT22;6539;49.476;8.484;2022-12-11T15:26:59;3.40;99.90
12948;DHT22;6539;49.476;8.484;2022-12-11T15:29:36;3.20;99.90
12948;DHT22;6539;49.476;8.484;2022-12-11T15:34:54;3.50;99.90
12948;DHT22;6539;49.476;8.484;2022-12-11T15:37:31;3.60;99.90
12948;DHT22;6539;49.476;8.484;2022-12-11T15:40:04;3.40;99.90
12948;DHT22;6539;49.476;8.484;2022-12-11T15:42:34;3.30;99.90
12948;DHT22;6539;49.476;8.484;2022-12-11T15:45:14;3.20;99.90
12948;DHT22;6539;49.476;8.484;2022-12-11T15:47:43;3.50;99.90
12948;DHT22;6539;49.476;8.484;2022-12-11T15:50:22;3.30;99.90
12948;DHT22;6539;49.476;8.484;2022-12-11T15:52:53;3.60;99.90
12948;DHT22;6539;49.476;8.484;2022-12-11T15:55:24;3.20;99.90
12948;DHT22;6539;49.476;8.484;2022-12-11T15:57:59;3.10;99.90
12948;DHT22;6539;49.476;8.484;2022-12-11T16:00:38;3.00;99.90
12948;DHT22;6539;49.476;8.484;2022-12-11T16:03:04;3.20;99.90
12948;DHT22;6539;49.476;8.484;2022-12-11T16:05:29;3.10;99.90
12948;DHT22;6539;49.476;8.484;2022-12-11T16:07:57;3.30;99.90
12948;DHT22;6539;49.476;8.484;2022-12-11T16:10:26;3.20;99.90
12948;DHT22;6539;49.476;8.484;2022-12-11T16:15:24;3.10;99.90
12948;DHT22;6539;49.476;8.484;2022-12-11T16:18:12;3.30;99.90
12948;DHT22;6539;49.476;8.484;2022-12-11T16:20:41;3.20;99.90
12948;DHT22;6539;49.476;8.484;2022-12-11T16:23:08;3.20;99.90
12948;DHT22;6539;49.476;8.484;2022-12-11T16:25:45;3.20;99.90
12948;DHT22;6539;49.476;8.484;2022-12-11T16:28:13;3.30;99.90
12948;DHT22;6539;49.476;8.484;2022-12-11T16:30:43;3.40;99.90
12948;DHT22;6539;49.476;8.484;2022-12-11T16:33:10;3.40;99.90
12948;DHT22;6539;49.476;8.484;2022-12-11T16:35:40;3.10;99.90
12948;DHT22;6539;49.476;8.484;2022-12-11T16:38:09;2.80;99.90
12948;DHT22;6539;49.476;8.484;2022-12-11T16:40:38;3.10;99.90
12948;DHT22;6539;49.476;8.484;2022-12-11T16:43:08;3.10;99.90
12948;DHT22;6539;49.476;8.484;2022-12-11T16:45:33;3.10;99.90
12948;DHT22;6539;49.476;8.484;2022-12-11T16:48:03;3.30;99.90
12948;DHT22;6539;49.476;8.484;2022-12-11T16:50:29;3.10;99.90
12948;DHT22;6539;49.476;8.484;2022-12-11T16:52:56;3.30;99.90
12948;DHT22;6539;49.476;8.484;2022-12-11T16:57:50;3.10;99.90
12948;DHT22;6539;49.476;8.484;2022-12-11T17:00:18;3.20;99.90
12948;DHT22;6539;49.476;8.484;2022-12-11T17:02:49;3.10;99.90
12948;DHT22;6539;49.476;8.484;2022-12-11T17:05:17;3.20;99.90
12948;DHT22;6539;49.476;8.484;2022-12-11T17:07:45;3.20;99.90
12948;DHT22;6539;49.476;8.484;2022-12-11T17:12:37;3.00;99.90
12948;DHT22;6539;49.476;8.484;2022-12-11T17:15:03;3.00;99.90
12948;DHT22;6539;49.476;8.484;2022-12-11T17:19:58;3.30;99.90
12948;DHT22;6539;49.476;8.484;2022-12-11T17:22:23;3.30;99.90
12948;DHT22;6539;49.476;8.484;2022-12-11T17:24:49;3.20;99.90
12948;DHT22;6539;49.476;8.484;2022-12-11T17:27:15;3.30;99.90
12948;DHT22;6539;49.476;8.484;2022-12-11T17:29:43;3.30;99.90
12948;DHT22;6539;49.476;8.484;2022-12-11T17:34:37;3.20;99.90
12948;DHT22;6539;49.476;8.484;2022-12-11T17:37:03;3.30;99.90
12948;DHT22;6539;49.476;8.484;2022-12-11T17:39:29;3.50;99.90
12948;DHT22;6539;49.476;8.484;2022-12-11T17:41:58;3.40;99.90
12948;DHT22;6539;49.476;8.484;2022-12-11T17:46:53;3.10;99.90
12948;DHT22;6539;49.476;8.484;2022-12-11T17:49:21;3.10;99.90
12948;DHT22;6539;49.476;8.484;2022-12-11T17:51:47;3.50;99.90
12948;DHT22;6539;49.476;8.484;2022-12-11T17:54:13;3.40;99.90
12948;DHT22;6539;49.476;8.484;2022-12-11T17:59:05;3.40;99.90
12948;DHT22;6539;49.476;8.484;2022-12-11T18:01:31;3.60;99.90
12948;DHT22;6539;49.476;8.484;2022-12-11T18:03:58;3.50;99.90
12948;DHT22;6539;49.476;8.484;2022-12-11T18:11:22;3.20;99.90
12948;DHT22;6539;49.476;8.484;2022-12-11T18:13:49;3.50;99.90
12948;DHT22;6539;49.476;8.484;2022-12-11T18:16:27;3.60;99.90
12948;DHT22;6539;49.476;8.484;2022-12-11T18:18:57;3.50;99.90
12948;DHT22;6539;49.476;8.484;2022-12-11T18:21:26;3.40;99.90
12948;DHT22;6539;49.476;8.484;2022-12-11T18:23:56;3.20;99.90
12948;DHT22;6539;49.476;8.484;2022-12-11T18:26:24;3.50;99.90
12948;DHT22;6539;49.476;8.484;2022-12-11T18:28:51;3.30;99.90
12948;DHT22;6539;49.476;8.484;2022-12-11T18:31:18;3.40;99.90
12948;DHT22;6539;49.476;8.484;2022-12-11T18:33:47;3.70;99.90
12948;DHT22;6539;49.476;8.484;2022-12-11T18:36:19;3.60;99.90
12948;DHT22;6539;49.476;8.484;2022-12-11T18:38:46;3.50;99.90
12948;DHT22;6539;49.476;8.484;2022-12-11T18:41:15;3.30;99.90
12948;DHT22;6539;49.476;8.484;2022-12-11T18:43:44;3.30;99.90
12948;DHT22;6539;49.476;8.484;2022-12-11T18:46:17;3.10;99.90
12948;DHT22;6539;49.476;8.484;2022-12-11T18:48:45;3.40;99.90
12948;DHT22;6539;49.476;8.484;2022-12-11T18:51:20;3.20;99.90
12948;DHT22;6539;49.476;8.484;2022-12-11T18:53:50;3.20;99.90
12948;DHT22;6539;49.476;8.484;2022-12-11T18:56:20;3.30;99.90
12948;DHT22;6539;49.476;8.484;2022-12-11T19:01:20;3.30;99.90
12948;DHT22;6539;49.476;8.484;2022-12-11T19:03:48;3.10;99.90
12948;DHT22;6539;49.476;8.484;2022-12-11T19:06:19;3.30;99.90
12948;DHT22;6539;49.476;8.484;2022-12-11T19:08:50;3.40;99.90
12948;DHT22;6539;49.476;8.484;2022-12-11T19:11:22;3.40;99.90
12948;DHT22;6539;49.476;8.484;2022-12-11T19:13:54;3.50;99.90
12948;DHT22;6539;49.476;8.484;2022-12-11T19:16:33;3.40;99.90
12948;DHT22;6539;49.476;8.484;2022-12-11T19:19:03;3.30;99.90
12948;DHT22;6539;49.476;8.484;2022-12-11T19:24:03;3.70;99.90
12948;DHT22;6539;49.476;8.484;2022-12-11T19:26:30;3.60;99.90
12948;DHT22;6539;49.476;8.484;2022-12-11T19:31:30;3.30;99.90
12948;DHT22;6539;49.476;8.484;2022-12-11T19:33:56;3.50;99.90
12948;DHT22;6539;49.476;8.484;2022-12-11T19:36:28;3.40;99.90
12948;DHT22;6539;49.476;8.484;2022-12-11T19:38:55;3.30;99.90
12948;DHT22;6539;49.476;8.484;2022-12-11T19:41:25;3.40;99.90
12948;DHT22;6539;49.476;8.484;2022-12-11T19:43:58;3.50;99.90
12948;DHT22;6539;49.476;8.484;2022-12-11T19:46:24;3.40;99.90
12948;DHT22;6539;49.476;8.484;2022-12-11T19:48:54;3.50;99.90
12948;DHT22;6539;49.476;8.484;2022-12-11T19:51:24;3.40;99.90
12948;DHT22;6539;49.476;8.484;2022-12-11T19:53:53;3.70;99.90
12948;DHT22;6539;49.476;8.484;2022-12-11T19:56:19;3.60;99.90
12948;DHT22;6539;49.476;8.484;2022-12-11T19:58:46;3.70;99.90
12948;DHT22;6539;49.476;8.484;2022-12-11T20:01:19;3.60;99.90
12948;DHT22;6539;49.476;8.484;2022-12-11T20:03:55;3.60;99.90
12948;DHT22;6539;49.476;8.484;2022-12-11T20:06:26;3.60;99.90
12948;DHT22;6539;49.476;8.484;2022-12-11T20:08:56;3.40;99.90
12948;DHT22;6539;49.476;8.484;2022-12-11T20:11:23;3.20;99.90
12948;DHT22;6539;49.476;8.484;2022-12-11T20:16:20;3.50;99.90